sensor_id;sensor_type;location;lat;lon;timestamp;P1;durP1;ratioP1;P2;durP2;ratioP2
19521;SDS011;9905;52.126;5.596;2022-11-04T00:01:22;22.90;;;21.80;;
19521;SDS011;9905;52.126;5.596;2022-11-04T00:03:49;21.25;;;20.45;;
19521;SDS011;9905;52.126;5.596;2022-11-04T00:06:18;22.95;;;21.85;;
19521;SDS011;9905;52.126;5.596;2022-11-04T00:08:47;22.38;;;21.48;;
19521;SDS011;9905;52.126;5.596;2022-11-04T00:11:14;20.63;;;19.92;;
19521;SDS011;9905;52.126;5.596;2022-11-04T00:13:59;22.08;;;20.88;;
19521;SDS011;9905;52.126;5.596;2022-11-04T00:16:26;21.15;;;20.15;;
19521;SDS011;9905;52.126;5.596;2022-11-04T00:19:10;21.02;;;20.23;;
19521;SDS011;9905;52.126;5.596;2022-11-04T00:21:38;20.88;;;19.98;;
19521;SDS011;9905;52.126;5.596;2022-11-04T00:24:23;20.42;;;19.52;;
19521;SDS011;9905;52.126;5.596;2022-11-04T00:27:09;20.42;;;19.63;;
19521;SDS011;9905;52.126;5.596;2022-11-04T00:29:54;21.02;;;20.23;;
19521;SDS011;9905;52.126;5.596;2022-11-04T00:32:21;21.65;;;20.70;;
19521;SDS011;9905;52.126;5.596;2022-11-04T00:35:06;21.98;;;21.08;;
19521;SDS011;9905;52.126;5.596;2022-11-04T00:37:36;19.95;;;19.35;;
19521;SDS011;9905;52.126;5.596;2022-11-04T00:40:03;21.75;;;20.70;;
19521;SDS011;9905;52.126;5.596;2022-11-04T00:42:31;21.90;;;21.00;;
19521;SDS011;9905;52.126;5.596;2022-11-04T00:44:58;20.98;;;20.02;;
19521;SDS011;9905;52.126;5.596;2022-11-04T00:47:24;21.83;;;20.92;;
19521;SDS011;9905;52.126;5.596;2022-11-04T00:49:51;21.40;;;20.58;;
19521;SDS011;9905;52.126;5.596;2022-11-04T00:52:18;20.63;;;19.88;;
19521;SDS011;9905;52.126;5.596;2022-11-04T00:54:46;21.92;;;20.83;;
19521;SDS011;9905;52.126;5.596;2022-11-04T00:57:13;21.70;;;20.67;;
19521;SDS011;9905;52.126;5.596;2022-11-04T00:59:40;21.73;;;20.75;;
19521;SDS011;9905;52.126;5.596;2022-11-04T01:02:09;20.77;;;20.02;;
19521;SDS011;9905;52.126;5.596;2022-11-04T01:04:37;21.55;;;20.40;;
19521;SDS011;9905;52.126;5.596;2022-11-04T01:07:04;22.38;;;21.30;;
19521;SDS011;9905;52.126;5.596;2022-11-04T01:09:30;22.15;;;21.10;;
19521;SDS011;9905;52.126;5.596;2022-11-04T01:11:59;24.65;;;23.15;;
19521;SDS011;9905;52.126;5.596;2022-11-04T01:14:25;23.20;;;21.90;;
19521;SDS011;9905;52.126;5.596;2022-11-04T01:16:52;20.27;;;19.38;;
19521;SDS011;9905;52.126;5.596;2022-11-04T01:19:19;19.83;;;19.08;;
19521;SDS011;9905;52.126;5.596;2022-11-04T01:21:48;19.80;;;18.95;;
19521;SDS011;9905;52.126;5.596;2022-11-04T01:24:16;18.38;;;17.77;;
19521;SDS011;9905;52.126;5.596;2022-11-04T01:26:43;18.23;;;17.58;;
19521;SDS011;9905;52.126;5.596;2022-11-04T01:29:11;18.98;;;18.25;;
19521;SDS011;9905;52.126;5.596;2022-11-04T01:31:38;18.73;;;17.98;;
19521;SDS011;9905;52.126;5.596;2022-11-04T01:34:05;18.73;;;18.17;;
19521;SDS011;9905;52.126;5.596;2022-11-04T01:36:32;20.13;;;19.25;;
19521;SDS011;9905;52.126;5.596;2022-11-04T01:38:59;18.50;;;17.85;;
19521;SDS011;9905;52.126;5.596;2022-11-04T01:41:27;19.08;;;18.27;;
19521;SDS011;9905;52.126;5.596;2022-11-04T01:43:55;18.27;;;17.55;;
19521;SDS011;9905;52.126;5.596;2022-11-04T01:46:26;17.70;;;17.20;;
19521;SDS011;9905;52.126;5.596;2022-11-04T01:48:58;17.27;;;16.77;;
19521;SDS011;9905;52.126;5.596;2022-11-04T01:51:29;18.08;;;17.40;;
19521;SDS011;9905;52.126;5.596;2022-11-04T01:54:00;17.73;;;17.17;;
19521;SDS011;9905;52.126;5.596;2022-11-04T01:56:30;17.17;;;16.67;;
19521;SDS011;9905;52.126;5.596;2022-11-04T01:58:58;17.27;;;16.67;;
19521;SDS011;9905;52.126;5.596;2022-11-04T02:01:30;17.23;;;16.63;;
19521;SDS011;9905;52.126;5.596;2022-11-04T02:03:57;18.15;;;17.55;;
19521;SDS011;9905;52.126;5.596;2022-11-04T02:06:46;17.77;;;17.05;;
19521;SDS011;9905;52.126;5.596;2022-11-04T02:09:14;17.88;;;17.25;;
19521;SDS011;9905;52.126;5.596;2022-11-04T02:11:42;17.83;;;17.17;;
19521;SDS011;9905;52.126;5.596;2022-11-04T02:14:26;17.95;;;17.35;;
19521;SDS011;9905;52.126;5.596;2022-11-04T02:16:55;17.65;;;17.15;;
19521;SDS011;9905;52.126;5.596;2022-11-04T02:19:35;18.70;;;18.10;;
19521;SDS011;9905;52.126;5.596;2022-11-04T02:22:40;19.60;;;18.73;;
19521;SDS011;9905;52.126;5.596;2022-11-04T02:25:51;17.50;;;17.00;;
19521;SDS011;9905;52.126;5.596;2022-11-04T02:28:37;17.85;;;17.25;;
19521;SDS011;9905;52.126;5.596;2022-11-04T02:31:24;18.58;;;17.98;;
19521;SDS011;9905;52.126;5.596;2022-11-04T02:33:58;18.70;;;18.10;;
19521;SDS011;9905;52.126;5.596;2022-11-04T02:36:31;18.52;;;17.77;;
19521;SDS011;9905;52.126;5.596;2022-11-04T02:39:04;18.75;;;18.23;;
19521;SDS011;9905;52.126;5.596;2022-11-04T02:41:40;18.27;;;17.50;;
19521;SDS011;9905;52.126;5.596;2022-11-04T02:44:12;18.23;;;17.70;;
19521;SDS011;9905;52.126;5.596;2022-11-04T02:46:47;17.48;;;16.90;;
19521;SDS011;9905;52.126;5.596;2022-11-04T02:49:19;17.13;;;16.63;;
19521;SDS011;9905;52.126;5.596;2022-11-04T02:51:51;16.55;;;16.02;;
19521;SDS011;9905;52.126;5.596;2022-11-04T02:54:26;16.55;;;16.05;;
19521;SDS011;9905;52.126;5.596;2022-11-04T02:56:57;17.38;;;16.80;;
19521;SDS011;9905;52.126;5.596;2022-11-04T02:59:27;16.20;;;15.80;;
19521;SDS011;9905;52.126;5.596;2022-11-04T03:01:59;17.05;;;16.40;;
19521;SDS011;9905;52.126;5.596;2022-11-04T03:04:29;17.02;;;16.50;;
19521;SDS011;9905;52.126;5.596;2022-11-04T03:06:59;17.30;;;16.60;;
19521;SDS011;9905;52.126;5.596;2022-11-04T03:09:28;18.45;;;17.70;;
19521;SDS011;9905;52.126;5.596;2022-11-04T03:11:59;16.73;;;16.23;;
19521;SDS011;9905;52.126;5.596;2022-11-04T03:14:30;16.85;;;16.20;;
19521;SDS011;9905;52.126;5.596;2022-11-04T03:17:03;18.20;;;16.95;;
19521;SDS011;9905;52.126;5.596;2022-11-04T03:19:35;17.63;;;17.13;;
19521;SDS011;9905;52.126;5.596;2022-11-04T03:22:06;16.90;;;16.40;;
19521;SDS011;9905;52.126;5.596;2022-11-04T03:24:36;17.42;;;16.90;;
19521;SDS011;9905;52.126;5.596;2022-11-04T03:27:04;16.70;;;16.10;;
19521;SDS011;9905;52.126;5.596;2022-11-04T03:29:38;18.35;;;17.75;;
19521;SDS011;9905;52.126;5.596;2022-11-04T03:32:16;16.60;;;16.05;;
19521;SDS011;9905;52.126;5.596;2022-11-04T03:34:49;16.90;;;16.40;;
19521;SDS011;9905;52.126;5.596;2022-11-04T03:37:17;16.35;;;15.80;;
19521;SDS011;9905;52.126;5.596;2022-11-04T03:39:44;16.55;;;15.95;;
19521;SDS011;9905;52.126;5.596;2022-11-04T03:42:11;16.25;;;15.75;;
19521;SDS011;9905;52.126;5.596;2022-11-04T03:44:46;16.90;;;16.40;;
19521;SDS011;9905;52.126;5.596;2022-11-04T03:47:13;16.00;;;15.60;;
19521;SDS011;9905;52.126;5.596;2022-11-04T03:49:43;17.67;;;16.98;;
19521;SDS011;9905;52.126;5.596;2022-11-04T03:52:10;17.38;;;16.80;;
19521;SDS011;9905;52.126;5.596;2022-11-04T03:54:37;16.50;;;15.88;;
19521;SDS011;9905;52.126;5.596;2022-11-04T03:57:12;17.40;;;16.70;;
19521;SDS011;9905;52.126;5.596;2022-11-04T04:00:00;17.77;;;17.10;;
19521;SDS011;9905;52.126;5.596;2022-11-04T04:02:38;18.58;;;17.88;;
19521;SDS011;9905;52.126;5.596;2022-11-04T04:05:13;18.65;;;17.83;;
19521;SDS011;9905;52.126;5.596;2022-11-04T04:07:47;17.75;;;17.05;;
19521;SDS011;9905;52.126;5.596;2022-11-04T04:10:18;19.17;;;18.25;;
19521;SDS011;9905;52.126;5.596;2022-11-04T04:13:13;18.75;;;17.80;;
19521;SDS011;9905;52.126;5.596;2022-11-04T04:15:51;20.55;;;19.45;;
19521;SDS011;9905;52.126;5.596;2022-11-04T04:18:24;21.15;;;19.80;;
19521;SDS011;9905;52.126;5.596;2022-11-04T04:20:55;23.65;;;21.98;;
19521;SDS011;9905;52.126;5.596;2022-11-04T04:23:26;25.85;;;23.95;;
19521;SDS011;9905;52.126;5.596;2022-11-04T04:26:13;26.15;;;24.15;;
19521;SDS011;9905;52.126;5.596;2022-11-04T04:28:59;26.65;;;24.45;;
19521;SDS011;9905;52.126;5.596;2022-11-04T04:31:28;29.25;;;26.88;;
19521;SDS011;9905;52.126;5.596;2022-11-04T04:34:16;27.75;;;25.45;;
19521;SDS011;9905;52.126;5.596;2022-11-04T04:36:45;27.25;;;24.95;;
19521;SDS011;9905;52.126;5.596;2022-11-04T04:39:17;27.45;;;25.15;;
19521;SDS011;9905;52.126;5.596;2022-11-04T04:42:05;27.65;;;24.98;;
19521;SDS011;9905;52.126;5.596;2022-11-04T04:44:51;27.88;;;25.35;;
19521;SDS011;9905;52.126;5.596;2022-11-04T04:50:13;29.13;;;26.38;;
19521;SDS011;9905;52.126;5.596;2022-11-04T04:52:41;29.77;;;26.92;;
19521;SDS011;9905;52.126;5.596;2022-11-04T04:55:10;31.05;;;27.85;;
19521;SDS011;9905;52.126;5.596;2022-11-04T04:57:37;29.95;;;26.92;;
19521;SDS011;9905;52.126;5.596;2022-11-04T05:00:05;29.48;;;26.40;;
19521;SDS011;9905;52.126;5.596;2022-11-04T05:02:33;28.35;;;25.55;;
19521;SDS011;9905;52.126;5.596;2022-11-04T05:05:00;27.75;;;25.35;;
19521;SDS011;9905;52.126;5.596;2022-11-04T05:07:28;27.30;;;24.98;;
19521;SDS011;9905;52.126;5.596;2022-11-04T05:09:55;27.73;;;25.23;;
19521;SDS011;9905;52.126;5.596;2022-11-04T05:12:21;27.45;;;24.90;;
19521;SDS011;9905;52.126;5.596;2022-11-04T05:14:48;26.25;;;23.85;;
19521;SDS011;9905;52.126;5.596;2022-11-04T05:17:15;26.67;;;24.48;;
19521;SDS011;9905;52.126;5.596;2022-11-04T05:19:42;25.85;;;23.65;;
19521;SDS011;9905;52.126;5.596;2022-11-04T05:22:09;25.23;;;23.08;;
19521;SDS011;9905;52.126;5.596;2022-11-04T05:24:37;25.92;;;23.73;;
19521;SDS011;9905;52.126;5.596;2022-11-04T05:27:03;23.75;;;21.83;;
19521;SDS011;9905;52.126;5.596;2022-11-04T05:29:30;23.08;;;21.40;;
19521;SDS011;9905;52.126;5.596;2022-11-04T05:31:57;23.95;;;21.85;;
19521;SDS011;9905;52.126;5.596;2022-11-04T05:34:24;23.98;;;22.13;;
19521;SDS011;9905;52.126;5.596;2022-11-04T05:36:50;23.63;;;21.52;;
19521;SDS011;9905;52.126;5.596;2022-11-04T05:39:17;23.55;;;21.60;;
19521;SDS011;9905;52.126;5.596;2022-11-04T05:41:45;23.05;;;21.40;;
19521;SDS011;9905;52.126;5.596;2022-11-04T05:44:15;23.92;;;21.95;;
19521;SDS011;9905;52.126;5.596;2022-11-04T05:46:42;22.23;;;20.67;;
19521;SDS011;9905;52.126;5.596;2022-11-04T05:49:08;23.83;;;21.83;;
19521;SDS011;9905;52.126;5.596;2022-11-04T05:51:35;23.65;;;21.50;;
19521;SDS011;9905;52.126;5.596;2022-11-04T05:54:02;23.55;;;21.75;;
19521;SDS011;9905;52.126;5.596;2022-11-04T05:56:29;23.27;;;21.50;;
19521;SDS011;9905;52.126;5.596;2022-11-04T05:58:57;22.20;;;20.50;;
19521;SDS011;9905;52.126;5.596;2022-11-04T06:01:28;23.52;;;21.42;;
19521;SDS011;9905;52.126;5.596;2022-11-04T06:03:57;23.83;;;21.75;;
19521;SDS011;9905;52.126;5.596;2022-11-04T06:06:25;24.27;;;22.10;;
19521;SDS011;9905;52.126;5.596;2022-11-04T06:08:54;25.15;;;23.05;;
19521;SDS011;9905;52.126;5.596;2022-11-04T06:11:22;29.23;;;26.67;;
19521;SDS011;9905;52.126;5.596;2022-11-04T06:13:49;29.88;;;26.95;;
19521;SDS011;9905;52.126;5.596;2022-11-04T06:16:18;28.92;;;26.35;;
19521;SDS011;9905;52.126;5.596;2022-11-04T06:18:44;26.38;;;24.17;;
19521;SDS011;9905;52.126;5.596;2022-11-04T06:21:19;26.98;;;24.77;;
19521;SDS011;9905;52.126;5.596;2022-11-04T06:23:50;24.63;;;22.83;;
19521;SDS011;9905;52.126;5.596;2022-11-04T06:26:18;22.15;;;20.60;;
19521;SDS011;9905;52.126;5.596;2022-11-04T06:28:45;24.70;;;22.77;;
19521;SDS011;9905;52.126;5.596;2022-11-04T06:31:12;22.90;;;21.27;;
19521;SDS011;9905;52.126;5.596;2022-11-04T06:33:42;22.77;;;21.05;;
19521;SDS011;9905;52.126;5.596;2022-11-04T06:36:10;21.75;;;20.33;;
19521;SDS011;9905;52.126;5.596;2022-11-04T06:38:38;22.20;;;20.67;;
19521;SDS011;9905;52.126;5.596;2022-11-04T06:41:05;23.90;;;22.33;;
19521;SDS011;9905;52.126;5.596;2022-11-04T06:43:32;23.63;;;22.05;;
19521;SDS011;9905;52.126;5.596;2022-11-04T06:46:00;22.40;;;20.80;;
19521;SDS011;9905;52.126;5.596;2022-11-04T06:48:28;24.00;;;21.95;;
19521;SDS011;9905;52.126;5.596;2022-11-04T06:50:57;25.17;;;23.45;;
19521;SDS011;9905;52.126;5.596;2022-11-04T06:53:23;24.15;;;22.30;;
19521;SDS011;9905;52.126;5.596;2022-11-04T06:55:50;23.20;;;21.73;;
19521;SDS011;9905;52.126;5.596;2022-11-04T06:58:18;22.00;;;20.75;;
19521;SDS011;9905;52.126;5.596;2022-11-04T07:00:49;23.25;;;21.58;;
19521;SDS011;9905;52.126;5.596;2022-11-04T07:03:17;22.85;;;21.55;;
19521;SDS011;9905;52.126;5.596;2022-11-04T07:05:43;23.42;;;21.90;;
19521;SDS011;9905;52.126;5.596;2022-11-04T07:08:12;23.67;;;22.08;;
19521;SDS011;9905;52.126;5.596;2022-11-04T07:10:38;22.92;;;21.27;;
19521;SDS011;9905;52.126;5.596;2022-11-04T07:13:05;22.20;;;21.00;;
19521;SDS011;9905;52.126;5.596;2022-11-04T07:15:32;22.23;;;20.80;;
19521;SDS011;9905;52.126;5.596;2022-11-04T07:17:58;23.48;;;21.70;;
19521;SDS011;9905;52.126;5.596;2022-11-04T07:20:25;22.08;;;20.67;;
19521;SDS011;9905;52.126;5.596;2022-11-04T07:22:52;23.52;;;22.27;;
19521;SDS011;9905;52.126;5.596;2022-11-04T07:25:20;23.00;;;21.70;;
19521;SDS011;9905;52.126;5.596;2022-11-04T07:27:47;23.23;;;21.60;;
19521;SDS011;9905;52.126;5.596;2022-11-04T07:30:14;21.73;;;20.63;;
19521;SDS011;9905;52.126;5.596;2022-11-04T07:32:41;22.38;;;20.98;;
19521;SDS011;9905;52.126;5.596;2022-11-04T07:35:08;22.58;;;21.20;;
19521;SDS011;9905;52.126;5.596;2022-11-04T07:37:35;21.95;;;20.65;;
19521;SDS011;9905;52.126;5.596;2022-11-04T07:40:02;20.85;;;19.60;;
19521;SDS011;9905;52.126;5.596;2022-11-04T07:42:33;20.67;;;19.77;;
19521;SDS011;9905;52.126;5.596;2022-11-04T07:45:00;23.10;;;21.77;;
19521;SDS011;9905;52.126;5.596;2022-11-04T07:47:28;21.50;;;20.50;;
19521;SDS011;9905;52.126;5.596;2022-11-04T07:49:55;22.30;;;20.65;;
19521;SDS011;9905;52.126;5.596;2022-11-04T07:52:22;20.73;;;19.52;;
19521;SDS011;9905;52.126;5.596;2022-11-04T07:54:49;21.27;;;20.20;;
19521;SDS011;9905;52.126;5.596;2022-11-04T07:57:16;21.33;;;19.90;;
19521;SDS011;9905;52.126;5.596;2022-11-04T07:59:44;22.10;;;20.58;;
19521;SDS011;9905;52.126;5.596;2022-11-04T08:02:11;21.52;;;19.92;;
19521;SDS011;9905;52.126;5.596;2022-11-04T08:04:37;21.58;;;20.20;;
19521;SDS011;9905;52.126;5.596;2022-11-04T08:07:06;21.00;;;19.60;;
19521;SDS011;9905;52.126;5.596;2022-11-04T08:09:33;19.35;;;18.35;;
19521;SDS011;9905;52.126;5.596;2022-11-04T08:12:01;19.15;;;17.95;;
19521;SDS011;9905;52.126;5.596;2022-11-04T08:14:28;19.55;;;18.58;;
19521;SDS011;9905;52.126;5.596;2022-11-04T08:16:57;20.05;;;18.90;;
19521;SDS011;9905;52.126;5.596;2022-11-04T08:19:24;18.85;;;17.50;;
19521;SDS011;9905;52.126;5.596;2022-11-04T08:21:51;18.20;;;17.40;;
19521;SDS011;9905;52.126;5.596;2022-11-04T08:24:18;20.83;;;19.60;;
19521;SDS011;9905;52.126;5.596;2022-11-04T08:26:44;18.92;;;17.90;;
19521;SDS011;9905;52.126;5.596;2022-11-04T08:29:11;19.23;;;18.10;;
19521;SDS011;9905;52.126;5.596;2022-11-04T08:31:38;19.58;;;18.50;;
19521;SDS011;9905;52.126;5.596;2022-11-04T08:34:07;19.35;;;18.42;;
19521;SDS011;9905;52.126;5.596;2022-11-04T08:36:35;19.40;;;18.30;;
19521;SDS011;9905;52.126;5.596;2022-11-04T08:39:05;20.50;;;19.35;;
19521;SDS011;9905;52.126;5.596;2022-11-04T08:41:33;20.40;;;19.17;;
19521;SDS011;9905;52.126;5.596;2022-11-04T08:44:01;19.88;;;18.88;;
19521;SDS011;9905;52.126;5.596;2022-11-04T08:46:30;20.00;;;18.67;;
19521;SDS011;9905;52.126;5.596;2022-11-04T08:48:59;20.15;;;19.00;;
19521;SDS011;9905;52.126;5.596;2022-11-04T08:51:28;19.80;;;18.88;;
19521;SDS011;9905;52.126;5.596;2022-11-04T08:53:56;20.92;;;19.92;;
19521;SDS011;9905;52.126;5.596;2022-11-04T08:56:23;19.75;;;18.85;;
19521;SDS011;9905;52.126;5.596;2022-11-04T08:58:52;19.15;;;18.25;;
19521;SDS011;9905;52.126;5.596;2022-11-04T09:01:20;19.95;;;18.95;;
19521;SDS011;9905;52.126;5.596;2022-11-04T09:03:47;19.48;;;18.23;;
19521;SDS011;9905;52.126;5.596;2022-11-04T09:06:16;18.27;;;17.48;;
19521;SDS011;9905;52.126;5.596;2022-11-04T09:08:46;20.15;;;18.60;;
19521;SDS011;9905;52.126;5.596;2022-11-04T09:11:13;18.73;;;17.80;;
19521;SDS011;9905;52.126;5.596;2022-11-04T09:13:41;19.73;;;18.63;;
19521;SDS011;9905;52.126;5.596;2022-11-04T09:16:09;18.33;;;17.30;;
19521;SDS011;9905;52.126;5.596;2022-11-04T09:18:37;19.35;;;18.45;;
19521;SDS011;9905;52.126;5.596;2022-11-04T09:21:04;19.27;;;18.38;;
19521;SDS011;9905;52.126;5.596;2022-11-04T09:23:32;19.75;;;18.75;;
19521;SDS011;9905;52.126;5.596;2022-11-04T09:26:03;18.85;;;17.80;;
19521;SDS011;9905;52.126;5.596;2022-11-04T09:28:32;19.85;;;18.58;;
19521;SDS011;9905;52.126;5.596;2022-11-04T09:30:58;19.95;;;19.05;;
19521;SDS011;9905;52.126;5.596;2022-11-04T09:33:29;19.60;;;18.70;;
19521;SDS011;9905;52.126;5.596;2022-11-04T09:35:57;20.08;;;18.98;;
19521;SDS011;9905;52.126;5.596;2022-11-04T09:38:24;19.85;;;18.90;;
19521;SDS011;9905;52.126;5.596;2022-11-04T09:40:51;21.23;;;19.92;;
19521;SDS011;9905;52.126;5.596;2022-11-04T09:43:24;21.75;;;20.45;;
19521;SDS011;9905;52.126;5.596;2022-11-04T09:45:57;23.77;;;22.10;;
19521;SDS011;9905;52.126;5.596;2022-11-04T09:48:27;23.30;;;21.60;;
19521;SDS011;9905;52.126;5.596;2022-11-04T09:50:58;22.58;;;20.92;;
19521;SDS011;9905;52.126;5.596;2022-11-04T09:53:29;23.13;;;21.55;;
19521;SDS011;9905;52.126;5.596;2022-11-04T09:56:02;22.45;;;20.85;;
19521;SDS011;9905;52.126;5.596;2022-11-04T09:58:35;22.60;;;21.10;;
19521;SDS011;9905;52.126;5.596;2022-11-04T10:01:05;22.60;;;21.02;;
19521;SDS011;9905;52.126;5.596;2022-11-04T10:03:46;20.95;;;19.42;;
19521;SDS011;9905;52.126;5.596;2022-11-04T10:06:29;21.23;;;19.58;;
19521;SDS011;9905;52.126;5.596;2022-11-04T10:09:04;20.15;;;18.35;;
19521;SDS011;9905;52.126;5.596;2022-11-04T10:11:42;17.92;;;16.73;;
19521;SDS011;9905;52.126;5.596;2022-11-04T10:14:23;16.77;;;15.40;;
19521;SDS011;9905;52.126;5.596;2022-11-04T10:17:07;16.55;;;15.05;;
19521;SDS011;9905;52.126;5.596;2022-11-04T10:19:49;16.60;;;15.40;;
19521;SDS011;9905;52.126;5.596;2022-11-04T10:22:27;16.83;;;15.35;;
19521;SDS011;9905;52.126;5.596;2022-11-04T10:25:00;17.42;;;16.15;;
19521;SDS011;9905;52.126;5.596;2022-11-04T10:27:34;17.45;;;16.10;;
19521;SDS011;9905;52.126;5.596;2022-11-04T10:30:05;16.60;;;15.52;;
19521;SDS011;9905;52.126;5.596;2022-11-04T10:32:40;17.80;;;16.50;;
19521;SDS011;9905;52.126;5.596;2022-11-04T10:35:24;16.40;;;14.88;;
19521;SDS011;9905;52.126;5.596;2022-11-04T10:37:57;15.10;;;14.02;;
19521;SDS011;9905;52.126;5.596;2022-11-04T10:40:38;15.13;;;14.02;;
19521;SDS011;9905;52.126;5.596;2022-11-04T10:43:07;16.55;;;14.85;;
19521;SDS011;9905;52.126;5.596;2022-11-04T10:45:42;15.60;;;14.30;;
19521;SDS011;9905;52.126;5.596;2022-11-04T10:48:19;14.68;;;13.68;;
19521;SDS011;9905;52.126;5.596;2022-11-04T10:50:51;15.02;;;13.70;;
19521;SDS011;9905;52.126;5.596;2022-11-04T10:53:21;14.57;;;13.63;;
19521;SDS011;9905;52.126;5.596;2022-11-04T10:55:51;15.75;;;13.70;;
19521;SDS011;9905;52.126;5.596;2022-11-04T10:58:24;15.57;;;14.23;;
19521;SDS011;9905;52.126;5.596;2022-11-04T11:00:55;15.10;;;13.80;;
19521;SDS011;9905;52.126;5.596;2022-11-04T11:03:24;16.70;;;15.32;;
19521;SDS011;9905;52.126;5.596;2022-11-04T11:08:53;17.42;;;14.95;;
19521;SDS011;9905;52.126;5.596;2022-11-04T11:11:33;16.58;;;15.18;;
19521;SDS011;9905;52.126;5.596;2022-11-04T11:14:03;16.98;;;15.32;;
19521;SDS011;9905;52.126;5.596;2022-11-04T11:16:31;17.10;;;15.90;;
19521;SDS011;9905;52.126;5.596;2022-11-04T11:19:06;17.80;;;16.20;;
19521;SDS011;9905;52.126;5.596;2022-11-04T11:21:40;16.95;;;15.57;;
19521;SDS011;9905;52.126;5.596;2022-11-04T11:24:12;16.33;;;15.13;;
19521;SDS011;9905;52.126;5.596;2022-11-04T11:26:41;15.38;;;14.35;;
19521;SDS011;9905;52.126;5.596;2022-11-04T11:29:12;17.17;;;15.43;;
19521;SDS011;9905;52.126;5.596;2022-11-04T11:31:47;16.83;;;15.23;;
19521;SDS011;9905;52.126;5.596;2022-11-04T11:34:17;17.02;;;15.63;;
19521;SDS011;9905;52.126;5.596;2022-11-04T11:36:47;16.65;;;15.35;;
19521;SDS011;9905;52.126;5.596;2022-11-04T11:39:16;16.48;;;15.10;;
19521;SDS011;9905;52.126;5.596;2022-11-04T11:41:53;17.80;;;16.15;;
19521;SDS011;9905;52.126;5.596;2022-11-04T11:44:24;16.85;;;15.45;;
19521;SDS011;9905;52.126;5.596;2022-11-04T11:46:57;17.00;;;15.50;;
19521;SDS011;9905;52.126;5.596;2022-11-04T11:49:27;16.63;;;15.07;;
19521;SDS011;9905;52.126;5.596;2022-11-04T11:51:55;15.07;;;13.88;;
19521;SDS011;9905;52.126;5.596;2022-11-04T11:54:41;15.43;;;14.10;;
19521;SDS011;9905;52.126;5.596;2022-11-04T11:57:12;15.05;;;13.95;;
19521;SDS011;9905;52.126;5.596;2022-11-04T11:59:51;15.25;;;13.95;;
19521;SDS011;9905;52.126;5.596;2022-11-04T12:02:27;13.98;;;12.82;;
19521;SDS011;9905;52.126;5.596;2022-11-04T12:04:59;13.25;;;12.40;;
19521;SDS011;9905;52.126;5.596;2022-11-04T12:07:28;15.25;;;13.82;;
19521;SDS011;9905;52.126;5.596;2022-11-04T12:10:05;15.18;;;13.88;;
19521;SDS011;9905;52.126;5.596;2022-11-04T12:12:45;13.35;;;12.35;;
19521;SDS011;9905;52.126;5.596;2022-11-04T12:15:42;13.68;;;12.45;;
19521;SDS011;9905;52.126;5.596;2022-11-04T12:18:26;14.68;;;13.48;;
19521;SDS011;9905;52.126;5.596;2022-11-04T12:21:08;15.13;;;13.93;;
19521;SDS011;9905;52.126;5.596;2022-11-04T12:23:43;13.32;;;12.43;;
19521;SDS011;9905;52.126;5.596;2022-11-04T12:26:17;14.02;;;12.82;;
19521;SDS011;9905;52.126;5.596;2022-11-04T12:28:55;15.00;;;13.82;;
19521;SDS011;9905;52.126;5.596;2022-11-04T12:31:31;14.05;;;12.95;;
19521;SDS011;9905;52.126;5.596;2022-11-04T12:34:09;13.45;;;12.40;;
19521;SDS011;9905;52.126;5.596;2022-11-04T12:36:48;14.93;;;13.65;;
19521;SDS011;9905;52.126;5.596;2022-11-04T12:39:32;13.05;;;12.07;;
19521;SDS011;9905;52.126;5.596;2022-11-04T12:42:11;13.77;;;12.68;;
19521;SDS011;9905;52.126;5.596;2022-11-04T12:44:44;13.38;;;12.20;;
19521;SDS011;9905;52.126;5.596;2022-11-04T12:47:20;12.70;;;11.32;;
19521;SDS011;9905;52.126;5.596;2022-11-04T12:53:06;11.90;;;11.20;;
19521;SDS011;9905;52.126;5.596;2022-11-04T12:55:48;11.07;;;10.23;;
19521;SDS011;9905;52.126;5.596;2022-11-04T12:58:31;11.25;;;10.52;;
19521;SDS011;9905;52.126;5.596;2022-11-04T13:01:05;11.13;;;10.13;;
19521;SDS011;9905;52.126;5.596;2022-11-04T13:03:38;11.30;;;10.05;;
19521;SDS011;9905;52.126;5.596;2022-11-04T13:06:11;12.07;;;10.40;;
19521;SDS011;9905;52.126;5.596;2022-11-04T13:08:43;11.32;;;10.43;;
19521;SDS011;9905;52.126;5.596;2022-11-04T13:11:14;11.30;;;10.50;;
19521;SDS011;9905;52.126;5.596;2022-11-04T13:13:49;11.70;;;10.57;;
19521;SDS011;9905;52.126;5.596;2022-11-04T13:16:21;11.70;;;10.50;;
19521;SDS011;9905;52.126;5.596;2022-11-04T13:18:48;11.73;;;10.77;;
19521;SDS011;9905;52.126;5.596;2022-11-04T13:21:18;11.82;;;10.77;;
19521;SDS011;9905;52.126;5.596;2022-11-04T13:23:49;12.10;;;10.82;;
19521;SDS011;9905;52.126;5.596;2022-11-04T13:26:21;12.18;;;10.80;;
19521;SDS011;9905;52.126;5.596;2022-11-04T13:28:48;11.65;;;10.75;;
19521;SDS011;9905;52.126;5.596;2022-11-04T13:31:26;11.63;;;10.82;;
19521;SDS011;9905;52.126;5.596;2022-11-04T13:33:57;11.48;;;10.70;;
19521;SDS011;9905;52.126;5.596;2022-11-04T13:36:34;11.18;;;10.48;;
19521;SDS011;9905;52.126;5.596;2022-11-04T13:39:12;10.77;;;9.70;;
19521;SDS011;9905;52.126;5.596;2022-11-04T13:41:54;11.15;;;10.07;;
19521;SDS011;9905;52.126;5.596;2022-11-04T13:44:39;9.82;;;8.93;;
19521;SDS011;9905;52.126;5.596;2022-11-04T13:47:14;9.43;;;8.68;;
19521;SDS011;9905;52.126;5.596;2022-11-04T13:49:47;9.48;;;8.65;;
19521;SDS011;9905;52.126;5.596;2022-11-04T13:52:17;7.10;;;6.65;;
19521;SDS011;9905;52.126;5.596;2022-11-04T13:54:44;3.30;;;3.10;;
19521;SDS011;9905;52.126;5.596;2022-11-04T13:57:18;3.08;;;2.92;;
19521;SDS011;9905;52.126;5.596;2022-11-04T14:02:37;3.53;;;3.38;;
19521;SDS011;9905;52.126;5.596;2022-11-04T14:08:23;4.35;;;4.00;;
19521;SDS011;9905;52.126;5.596;2022-11-04T14:13:44;4.88;;;4.70;;
19521;SDS011;9905;52.126;5.596;2022-11-04T14:16:35;5.18;;;4.97;;
19521;SDS011;9905;52.126;5.596;2022-11-04T14:22:31;5.35;;;5.05;;
19521;SDS011;9905;52.126;5.596;2022-11-04T14:25:01;5.25;;;4.93;;
19521;SDS011;9905;52.126;5.596;2022-11-04T14:27:44;4.75;;;4.65;;
19521;SDS011;9905;52.126;5.596;2022-11-04T14:30:26;4.57;;;4.35;;
19521;SDS011;9905;52.126;5.596;2022-11-04T14:32:57;4.40;;;4.22;;
19521;SDS011;9905;52.126;5.596;2022-11-04T14:35:26;4.72;;;4.47;;
19521;SDS011;9905;52.126;5.596;2022-11-04T14:37:54;4.55;;;4.32;;
19521;SDS011;9905;52.126;5.596;2022-11-04T14:40:23;4.85;;;4.63;;
19521;SDS011;9905;52.126;5.596;2022-11-04T14:42:52;4.90;;;4.60;;
19521;SDS011;9905;52.126;5.596;2022-11-04T14:45:21;5.13;;;4.93;;
19521;SDS011;9905;52.126;5.596;2022-11-04T14:47:50;4.68;;;4.57;;
19521;SDS011;9905;52.126;5.596;2022-11-04T14:50:22;5.15;;;4.90;;
19521;SDS011;9905;52.126;5.596;2022-11-04T14:52:51;4.88;;;4.68;;
19521;SDS011;9905;52.126;5.596;2022-11-04T14:55:22;4.50;;;4.40;;
19521;SDS011;9905;52.126;5.596;2022-11-04T14:57:50;4.82;;;4.70;;
19521;SDS011;9905;52.126;5.596;2022-11-04T15:00:25;5.22;;;5.03;;
19521;SDS011;9905;52.126;5.596;2022-11-04T15:03:03;5.50;;;5.20;;
19521;SDS011;9905;52.126;5.596;2022-11-04T15:05:39;4.50;;;4.40;;
19521;SDS011;9905;52.126;5.596;2022-11-04T15:08:24;4.93;;;4.63;;
19521;SDS011;9905;52.126;5.596;2022-11-04T15:10:56;4.80;;;4.60;;
19521;SDS011;9905;52.126;5.596;2022-11-04T15:13:24;4.78;;;4.57;;
19521;SDS011;9905;52.126;5.596;2022-11-04T15:15:51;5.00;;;4.82;;
19521;SDS011;9905;52.126;5.596;2022-11-04T15:18:20;4.80;;;4.68;;
19521;SDS011;9905;52.126;5.596;2022-11-04T15:20:53;5.78;;;5.50;;
19521;SDS011;9905;52.126;5.596;2022-11-04T15:23:25;5.63;;;5.43;;
19521;SDS011;9905;52.126;5.596;2022-11-04T15:25:54;5.50;;;5.30;;